createdAt,value
2017-10-29T00:00:27.267Z,96402.37
2017-10-29T00:02:53.015Z,96401.95
2017-10-29T00:05:18.777Z,96384.12
2017-10-29T00:07:44.503Z,96395.73
2017-10-29T00:10:10.294Z,96381.23
2017-10-29T00:12:36.054Z,96359.85
2017-10-29T00:15:01.809Z,96359.07
2017-10-29T00:17:27.580Z,96366.41
2017-10-29T00:19:53.340Z,96350.05
2017-10-29T00:22:19.071Z,96340.00
2017-10-29T00:24:44.846Z,96336.38
2017-10-29T00:27:10.597Z,96318.42
2017-10-29T00:29:36.379Z,96306.36
2017-10-29T00:32:02.146Z,96283.95
2017-10-29T00:34:27.930Z,96272.92
2017-10-29T00:36:53.728Z,96273.50
2017-10-29T00:39:19.478Z,96273.93
2017-10-29T00:41:45.250Z,96279.77
2017-10-29T00:44:11.035Z,96283.02
2017-10-29T00:46:36.815Z,96279.04
2017-10-29T00:49:02.579Z,96270.80
2017-10-29T00:51:28.339Z,96269.43
2017-10-29T00:53:54.119Z,96264.58
2017-10-29T00:56:19.875Z,96270.22
2017-10-29T00:58:45.664Z,96280.55
2017-10-29T01:01:11.424Z,96255.87
2017-10-29T01:03:37.207Z,96252.31
2017-10-29T01:06:02.971Z,96253.67
2017-10-29T01:08:29.484Z,96252.86
2017-10-29T01:10:55.273Z,96260.63
2017-10-29T01:13:21.019Z,96270.76
2017-10-29T01:15:46.774Z,96280.61
2017-10-29T01:18:12.543Z,96274.87
2017-10-29T01:20:38.307Z,96278.77
2017-10-29T01:23:04.058Z,96279.34
2017-10-29T01:25:29.840Z,96281.91
2017-10-29T01:27:55.612Z,96270.43
2017-10-29T01:30:21.738Z,96270.70
2017-10-29T01:32:47.487Z,96266.08
2017-10-29T01:35:13.243Z,96273.82
2017-10-29T01:37:39.012Z,96268.26
2017-10-29T01:40:04.762Z,96261.00
2017-10-29T01:42:30.561Z,96263.45
2017-10-29T01:44:56.301Z,96257.38
2017-10-29T01:47:22.044Z,96265.18
2017-10-29T01:49:47.815Z,96261.25
2017-10-29T01:52:13.592Z,96251.05
2017-10-29T01:54:39.390Z,96242.41
2017-10-29T01:57:05.155Z,96234.60
2017-10-29T01:59:30.908Z,96233.42
2017-10-29T02:01:56.676Z,96220.08
2017-10-29T02:04:22.444Z,96191.86
2017-10-29T02:06:48.200Z,96197.01
2017-10-29T02:09:13.955Z,96182.97
2017-10-29T02:11:39.719Z,96178.02
2017-10-29T02:14:05.467Z,96180.39
2017-10-29T02:16:31.236Z,96194.20
2017-10-29T02:18:56.979Z,96188.70
2017-10-29T02:21:22.740Z,96162.59
2017-10-29T02:23:48.511Z,96167.08
2017-10-29T02:26:14.319Z,96156.44
2017-10-29T02:28:40.067Z,96163.48
2017-10-29T02:31:05.831Z,96166.30
2017-10-29T02:33:31.604Z,96149.64
2017-10-29T02:35:57.364Z,96144.96
2017-10-29T02:38:23.116Z,96143.42
2017-10-29T02:40:48.900Z,96140.31
2017-10-29T02:43:14.678Z,96142.66
2017-10-29T02:45:40.446Z,96122.79
2017-10-29T02:48:06.227Z,96121.83
2017-10-29T02:50:32.431Z,96124.60
2017-10-29T02:52:58.223Z,96125.14
2017-10-29T02:55:23.984Z,96104.48
2017-10-29T02:57:49.743Z,96116.32
2017-10-29T03:00:15.523Z,96127.44
2017-10-29T03:02:41.276Z,96105.47
2017-10-29T03:05:07.059Z,96105.55
2017-10-29T03:07:32.839Z,96101.52
2017-10-29T03:09:58.579Z,96098.01
2017-10-29T03:12:24.330Z,96098.95
2017-10-29T03:14:50.100Z,96083.63
2017-10-29T03:17:15.858Z,96096.73
2017-10-29T03:19:41.606Z,96087.94
2017-10-29T03:22:07.385Z,96101.30
2017-10-29T03:24:33.144Z,96069.45
2017-10-29T03:26:58.909Z,96082.02
2017-10-29T03:29:24.698Z,96064.34
2017-10-29T03:31:50.457Z,96068.77
2017-10-29T03:34:16.235Z,96080.38
2017-10-29T03:36:42.043Z,96064.34
2017-10-29T03:39:07.836Z,96068.88
2017-10-29T03:41:33.615Z,96065.28
2017-10-29T03:43:59.363Z,96051.48
2017-10-29T03:46:25.122Z,96063.13
2017-10-29T03:48:50.863Z,96064.83
2017-10-29T03:51:16.635Z,96047.83
2017-10-29T03:53:42.420Z,95995.31
2017-10-29T03:56:08.183Z,96035.86
2017-10-29T03:58:33.915Z,96065.30
2017-10-29T04:00:59.680Z,96040.14
2017-10-29T04:03:25.451Z,96014.47
2017-10-29T04:05:51.240Z,96038.83
2017-10-29T04:08:16.986Z,96018.41
2017-10-29T04:10:42.755Z,96035.91
2017-10-29T04:13:08.511Z,96047.11
2017-10-29T04:15:34.284Z,96024.42
2017-10-29T04:18:00.042Z,96006.66
2017-10-29T04:20:25.792Z,96021.78
2017-10-29T04:22:52.874Z,96014.34
2017-10-29T04:25:18.623Z,96005.03
2017-10-29T04:27:44.386Z,95993.64
2017-10-29T04:30:10.163Z,96026.20
2017-10-29T04:32:35.939Z,96016.20
2017-10-29T04:35:01.685Z,95995.78
2017-10-29T04:37:27.516Z,96029.40
2017-10-29T04:39:53.275Z,95998.45
2017-10-29T04:42:19.050Z,96007.25
2017-10-29T04:44:44.821Z,95988.20
2017-10-29T04:47:10.575Z,95990.54
2017-10-29T04:49:36.349Z,96000.98
2017-10-29T04:52:02.136Z,95973.92
2017-10-29T04:54:27.896Z,95999.77
2017-10-29T04:56:53.658Z,95957.70
2017-10-29T04:59:19.440Z,95978.80
2017-10-29T05:01:45.201Z,95973.47
2017-10-29T05:04:10.972Z,95946.05
2017-10-29T05:06:36.725Z,95952.16
2017-10-29T05:09:02.499Z,95953.46
2017-10-29T05:11:28.272Z,95955.20
2017-10-29T05:13:54.056Z,95945.48
2017-10-29T05:16:19.807Z,95934.11
2017-10-29T05:18:45.576Z,95956.48
2017-10-29T05:21:11.335Z,95945.81
2017-10-29T05:23:37.109Z,95925.06
2017-10-29T05:26:02.884Z,95923.89
2017-10-29T05:28:28.635Z,95909.91
2017-10-29T05:30:54.443Z,95889.80
2017-10-29T05:33:20.200Z,95893.19
2017-10-29T05:35:45.980Z,95934.80
2017-10-29T05:38:11.735Z,95924.06
2017-10-29T05:40:37.527Z,95904.66
2017-10-29T05:43:03.310Z,95918.70
2017-10-29T05:45:29.108Z,95909.59
2017-10-29T05:47:54.900Z,95912.68
2017-10-29T05:50:20.676Z,95916.50
2017-10-29T05:52:46.460Z,95922.69
2017-10-29T05:55:12.230Z,95934.39
2017-10-29T05:57:38.008Z,95920.88
2017-10-29T06:00:03.778Z,95931.02
2017-10-29T06:02:29.567Z,95949.31
2017-10-29T06:04:55.355Z,95934.31
2017-10-29T06:07:21.103Z,95907.09
2017-10-29T06:09:46.873Z,95919.34
2017-10-29T06:12:12.639Z,95911.42
2017-10-29T06:14:38.384Z,95904.73
2017-10-29T06:17:04.175Z,95884.80
2017-10-29T06:19:29.944Z,95879.84
2017-10-29T06:21:55.707Z,95844.36
2017-10-29T06:24:21.455Z,95863.19
2017-10-29T06:26:47.204Z,95845.70
2017-10-29T06:29:12.970Z,95880.50
2017-10-29T06:31:38.783Z,95896.73
2017-10-29T06:34:04.580Z,95902.43
2017-10-29T06:36:30.390Z,95917.92
2017-10-29T06:38:56.147Z,95918.77
2017-10-29T06:41:21.919Z,95897.09
2017-10-29T06:43:47.678Z,95903.81
2017-10-29T06:46:13.482Z,95907.93
2017-10-29T06:48:39.239Z,95927.43
2017-10-29T06:51:04.987Z,95910.39
2017-10-29T06:53:30.767Z,95897.83
2017-10-29T06:55:56.563Z,95919.86
2017-10-29T06:58:22.378Z,95922.99
2017-10-29T07:00:48.242Z,95914.76
2017-10-29T07:03:14.028Z,95923.20
2017-10-29T07:05:39.798Z,95918.20
2017-10-29T07:08:05.679Z,95927.36
2017-10-29T07:10:31.541Z,95925.18
2017-10-29T07:12:57.318Z,95933.09
2017-10-29T07:15:23.171Z,95923.09
2017-10-29T07:17:49.059Z,95926.22
2017-10-29T07:20:14.923Z,95936.15
2017-10-29T07:22:40.749Z,95951.85
2017-10-29T07:25:06.575Z,95939.61
2017-10-29T07:27:32.339Z,95943.79
2017-10-29T07:29:58.236Z,95943.41
2017-10-29T07:32:24.028Z,95935.77
2017-10-29T07:34:49.860Z,95933.76
2017-10-29T07:37:15.676Z,95941.44
2017-10-29T07:39:41.511Z,95944.95
2017-10-29T07:42:07.338Z,95934.40
2017-10-29T07:44:33.157Z,95952.95
2017-10-29T07:46:58.956Z,95943.94
2017-10-29T07:49:24.723Z,95943.38
2017-10-29T07:51:50.544Z,95940.99
2017-10-29T07:54:16.284Z,95920.16
2017-10-29T07:56:42.029Z,95941.94
2017-10-29T07:59:07.958Z,95950.92
2017-10-29T08:01:33.736Z,95939.55
2017-10-29T08:03:59.575Z,95936.88
2017-10-29T08:06:25.372Z,95933.14
2017-10-29T08:08:51.216Z,95946.73
2017-10-29T08:11:17.059Z,95929.97
2017-10-29T08:13:42.844Z,95910.39
2017-10-29T08:16:08.647Z,95943.59
2017-10-29T08:18:34.540Z,95938.74
2017-10-29T08:21:00.412Z,95926.19
2017-10-29T08:23:26.288Z,95919.66
2017-10-29T08:25:52.064Z,95919.55
2017-10-29T08:28:17.812Z,95930.44
2017-10-29T08:30:43.658Z,95933.36
2017-10-29T08:33:09.442Z,95928.78
2017-10-29T08:35:35.308Z,95920.03
2017-10-29T08:38:01.116Z,95923.95
2017-10-29T08:40:26.952Z,95927.34
2017-10-29T08:42:52.709Z,95940.70
2017-10-29T08:45:18.592Z,95963.42
2017-10-29T08:47:44.395Z,95971.36
2017-10-29T08:50:10.174Z,95950.73
2017-10-29T08:52:35.998Z,95969.05
2017-10-29T08:55:01.814Z,95962.48
2017-10-29T08:57:27.578Z,95969.59
2017-10-29T08:59:53.415Z,95979.38
2017-10-29T09:02:19.297Z,95974.05
2017-10-29T09:04:45.048Z,95985.79
2017-10-29T09:07:10.811Z,95961.77
2017-10-29T09:09:36.636Z,95974.38
2017-10-29T09:12:02.466Z,95973.83
2017-10-29T09:14:28.323Z,95972.00
2017-10-29T09:16:54.077Z,95987.21
2017-10-29T09:19:19.932Z,95992.78
2017-10-29T09:21:45.694Z,95992.56
2017-10-29T09:24:11.475Z,96006.14
2017-10-29T09:26:37.323Z,96021.94
2017-10-29T09:29:03.135Z,96030.08
2017-10-29T09:31:28.952Z,96031.88
2017-10-29T09:33:54.763Z,96050.30
2017-10-29T09:36:20.623Z,96038.53
2017-10-29T09:38:46.414Z,96042.69
2017-10-29T09:41:12.263Z,96041.60
2017-10-29T09:43:38.083Z,96067.92
2017-10-29T09:46:03.933Z,96066.86
2017-10-29T09:48:30.247Z,96064.68
2017-10-29T09:50:56.484Z,96067.85
2017-10-29T09:53:23.126Z,96074.16
2017-10-29T09:55:49.363Z,96080.36
2017-10-29T09:58:15.964Z,96087.72
2017-10-29T10:00:42.756Z,96086.98
2017-10-29T10:03:09.019Z,96079.05
2017-10-29T10:05:35.636Z,96084.80
2017-10-29T10:08:01.504Z,96108.97
2017-10-29T10:10:27.692Z,96148.22
2017-10-29T10:12:53.822Z,96164.90
2017-10-29T10:15:20.367Z,96176.20
2017-10-29T10:17:47.212Z,96175.87
2017-10-29T10:20:13.447Z,96177.20
2017-10-29T10:22:39.578Z,96187.28
2017-10-29T10:25:05.711Z,96196.59
2017-10-29T10:27:31.846Z,96194.11
2017-10-29T10:29:58.080Z,96197.10
2017-10-29T10:32:24.311Z,96194.34
2017-10-29T10:34:50.138Z,96210.73
2017-10-29T10:37:15.927Z,96218.47
2017-10-29T10:39:41.719Z,96219.70
2017-10-29T10:42:07.480Z,96218.10
2017-10-29T10:44:33.226Z,96230.71
2017-10-29T10:46:58.991Z,96228.53
2017-10-29T10:49:24.746Z,96220.48
2017-10-29T10:51:50.513Z,96220.94
2017-10-29T10:54:16.311Z,96221.27
2017-10-29T10:56:42.063Z,96222.02
2017-10-29T10:59:07.859Z,96220.34
2017-10-29T11:01:33.616Z,96224.00
2017-10-29T11:03:59.387Z,96239.14
2017-10-29T11:06:25.255Z,96233.81
2017-10-29T11:08:51.016Z,96240.12
2017-10-29T11:11:16.775Z,96233.35
2017-10-29T11:13:42.530Z,96230.16
2017-10-29T11:16:08.271Z,96226.70
2017-10-29T11:18:34.043Z,96239.16
2017-10-29T11:20:59.806Z,96239.42
2017-10-29T11:23:25.559Z,96255.37
2017-10-29T11:25:51.318Z,96258.49
2017-10-29T11:28:17.084Z,96249.16
2017-10-29T11:30:42.855Z,96259.95
2017-10-29T11:33:08.607Z,96254.73
2017-10-29T11:35:34.395Z,96259.42
2017-10-29T11:38:00.187Z,96248.16
2017-10-29T11:40:25.935Z,96254.31
2017-10-29T11:42:51.704Z,96267.86
2017-10-29T11:45:17.459Z,96263.30
2017-10-29T11:47:43.272Z,96255.12
2017-10-29T11:50:09.026Z,96266.65
2017-10-29T11:52:34.804Z,96262.02
2017-10-29T11:55:00.569Z,96278.98
2017-10-29T11:57:26.327Z,96277.65
2017-10-29T11:59:52.075Z,96275.73
2017-10-29T12:02:17.846Z,96277.47
2017-10-29T12:04:43.630Z,96285.73
2017-10-29T12:07:09.371Z,96283.91
2017-10-29T12:09:35.136Z,96293.38
2017-10-29T12:12:00.936Z,96291.05
2017-10-29T12:14:26.676Z,96295.36
2017-10-29T12:16:52.443Z,96296.85
2017-10-29T12:19:18.212Z,96294.09
2017-10-29T12:21:43.947Z,96308.94
2017-10-29T12:24:09.728Z,96298.95
2017-10-29T12:26:35.468Z,96302.89
2017-10-29T12:29:01.218Z,96299.58
2017-10-29T12:31:27.016Z,96297.91
2017-10-29T12:33:52.765Z,96305.03
2017-10-29T12:36:18.510Z,96309.80
2017-10-29T12:38:44.315Z,96309.51
2017-10-29T12:41:10.103Z,96313.25
2017-10-29T12:43:35.849Z,96313.56
2017-10-29T12:46:01.623Z,96309.53
2017-10-29T12:48:27.393Z,96311.31
2017-10-29T12:50:53.144Z,96313.39
2017-10-29T12:53:18.907Z,96316.39
2017-10-29T12:55:44.684Z,96330.81
2017-10-29T12:58:10.435Z,96326.04
2017-10-29T13:00:36.187Z,96333.95
2017-10-29T13:03:01.947Z,96333.18
2017-10-29T13:05:27.711Z,96340.59
2017-10-29T13:07:53.499Z,96343.17
2017-10-29T13:10:19.247Z,96341.56
2017-10-29T13:12:45.017Z,96350.64
2017-10-29T13:15:10.792Z,96340.84
2017-10-29T13:17:36.544Z,96344.66
2017-10-29T13:20:02.320Z,96341.09
2017-10-29T13:22:28.073Z,96334.88
2017-10-29T13:24:53.836Z,96338.89
2017-10-29T13:27:19.587Z,96355.47
2017-10-29T13:29:45.358Z,96363.91
2017-10-29T13:32:11.103Z,96366.58
2017-10-29T13:37:57.790Z,96375.02
2017-10-29T13:40:34.110Z,96378.70
2017-10-29T13:43:00.831Z,96376.53
2017-10-29T13:45:27.628Z,96384.02
2017-10-29T13:48:20.666Z,96388.73
2017-10-29T13:50:46.469Z,96380.16
2017-10-29T13:53:12.255Z,96386.36
2017-10-29T13:55:38.062Z,96391.76
2017-10-29T13:58:03.847Z,96402.06
2017-10-29T14:00:29.595Z,96402.63
2017-10-29T14:02:55.356Z,96409.16
2017-10-29T14:05:21.140Z,96411.41
2017-10-29T14:07:46.906Z,96415.09
2017-10-29T14:10:12.699Z,96427.39
2017-10-29T14:12:38.461Z,96424.64
2017-10-29T14:15:04.223Z,96433.75
2017-10-29T14:17:30.004Z,96432.68
2017-10-29T14:19:55.763Z,96439.15
2017-10-29T14:22:21.526Z,96444.38
2017-10-29T14:24:47.323Z,96452.55
2017-10-29T14:27:13.076Z,96456.22
2017-10-29T14:29:38.843Z,96449.47
2017-10-29T14:32:04.968Z,96455.94
2017-10-29T14:34:31.045Z,96462.31
2017-10-29T14:36:56.819Z,96466.83
2017-10-29T14:39:22.601Z,96468.59
2017-10-29T14:41:48.403Z,96477.27
2017-10-29T14:44:14.183Z,96476.31
2017-10-29T14:46:39.971Z,96483.84
2017-10-29T14:49:05.729Z,96491.66
2017-10-29T14:51:31.510Z,96493.30
2017-10-29T14:53:57.307Z,96491.05
2017-10-29T14:56:23.081Z,96498.27
2017-10-29T14:58:48.843Z,96508.13
2017-10-29T15:01:14.615Z,96507.59
2017-10-29T15:03:40.375Z,96507.63
2017-10-29T15:06:06.157Z,96515.14
2017-10-29T15:08:31.926Z,96519.44
2017-10-29T15:10:57.707Z,96520.28
2017-10-29T15:13:23.495Z,96522.39
2017-10-29T15:15:49.267Z,96515.88
2017-10-29T15:18:15.013Z,96518.45
2017-10-29T15:20:40.808Z,96524.47
2017-10-29T15:23:06.586Z,96526.31
2017-10-29T15:25:32.335Z,96529.86
2017-10-29T15:27:58.127Z,96529.34
2017-10-29T15:30:23.892Z,96541.91
2017-10-29T15:32:49.696Z,96546.59
2017-10-29T15:35:15.448Z,96557.58
2017-10-29T15:37:41.235Z,96562.52
2017-10-29T15:40:07.012Z,96559.91
2017-10-29T15:42:32.767Z,96561.56
2017-10-29T15:44:58.553Z,96563.16
2017-10-29T15:47:24.315Z,96560.09
2017-10-29T15:49:50.088Z,96559.59
2017-10-29T15:52:15.884Z,96563.33
2017-10-29T15:54:41.643Z,96562.64
2017-10-29T15:57:07.409Z,96563.05
2017-10-29T15:59:33.197Z,96572.09
2017-10-29T16:01:58.946Z,96569.64
2017-10-29T16:04:24.775Z,96583.55
2017-10-29T16:06:50.564Z,96574.54
2017-10-29T16:09:16.355Z,96579.63
2017-10-29T16:11:42.122Z,96586.87
2017-10-29T16:14:07.884Z,96592.66
2017-10-29T16:16:33.666Z,96595.17
2017-10-29T16:18:59.435Z,96598.45
2017-10-29T16:21:25.188Z,96600.85
2017-10-29T16:23:50.981Z,96596.29
2017-10-29T16:26:16.735Z,96598.05
2017-10-29T16:28:42.492Z,96597.26
2017-10-29T16:31:08.302Z,96605.06
2017-10-29T16:33:34.069Z,96606.16
2017-10-29T16:35:59.828Z,96606.26
2017-10-29T16:38:25.642Z,96612.08
2017-10-29T16:40:51.428Z,96626.25
2017-10-29T16:43:17.245Z,96638.52
2017-10-29T16:45:43.027Z,96647.53
2017-10-29T16:48:08.786Z,96648.97
2017-10-29T16:50:34.567Z,96650.13
2017-10-29T16:53:00.333Z,96664.29
2017-10-29T16:55:26.207Z,96675.37
2017-10-29T16:57:51.987Z,96675.50
2017-10-29T17:00:17.767Z,96668.95
2017-10-29T17:02:43.518Z,96669.80
2017-10-29T17:05:09.334Z,96669.98
2017-10-29T17:07:35.095Z,96673.72
2017-10-29T17:10:00.940Z,96687.47
2017-10-29T17:12:26.747Z,96688.50
2017-10-29T17:14:52.504Z,96696.70
2017-10-29T17:17:18.295Z,96698.67
2017-10-29T17:19:44.062Z,96696.46
2017-10-29T17:22:09.851Z,96699.38
2017-10-29T17:24:35.624Z,96693.92
2017-10-29T17:27:01.379Z,96696.05
2017-10-29T17:29:27.139Z,96702.92
2017-10-29T17:31:52.914Z,96709.59
2017-10-29T17:34:18.683Z,96706.95
2017-10-29T17:36:45.487Z,96714.97
2017-10-29T17:39:11.345Z,96709.13
2017-10-29T17:41:37.118Z,96715.13
2017-10-29T17:44:02.890Z,96726.96
2017-10-29T17:46:28.654Z,96729.38
2017-10-29T17:48:54.412Z,96733.75
2017-10-29T17:51:20.178Z,96736.84
2017-10-29T17:53:45.967Z,96738.52
2017-10-29T17:56:11.765Z,96737.25
2017-10-29T17:58:37.559Z,96742.92
2017-10-29T18:01:03.310Z,96745.52
2017-10-29T18:03:29.087Z,96754.96
2017-10-29T18:05:54.869Z,96757.35
2017-10-29T18:08:20.643Z,96764.69
2017-10-29T18:10:46.413Z,96757.39
2017-10-29T18:13:12.194Z,96757.23
2017-10-29T18:15:37.968Z,96758.88
2017-10-29T18:18:03.779Z,96757.23
2017-10-29T18:20:29.567Z,96762.89
2017-10-29T18:22:55.338Z,96765.37
2017-10-29T18:25:21.116Z,96760.30
2017-10-29T18:27:46.875Z,96759.62
2017-10-29T18:30:12.623Z,96763.56
2017-10-29T18:32:38.392Z,96753.79
2017-10-29T18:35:04.187Z,96749.92
2017-10-29T18:37:29.964Z,96752.33
2017-10-29T18:39:55.746Z,96758.72
2017-10-29T18:42:21.547Z,96765.86
2017-10-29T18:44:47.335Z,96773.96
2017-10-29T18:47:13.153Z,96769.60
2017-10-29T18:49:38.920Z,96771.72
2017-10-29T18:52:04.686Z,96771.59
2017-10-29T18:54:30.439Z,96772.39
2017-10-29T18:56:56.196Z,96774.55
2017-10-29T18:59:21.990Z,96782.20
2017-10-29T19:01:47.740Z,96783.92
2017-10-29T19:04:13.548Z,96794.19
2017-10-29T19:06:39.314Z,96793.78
2017-10-29T19:09:05.070Z,96805.66
2017-10-29T19:11:30.926Z,96817.48
2017-10-29T19:13:56.702Z,96821.17
2017-10-29T19:16:22.469Z,96825.13
2017-10-29T19:18:48.247Z,96831.70
2017-10-29T19:21:14.030Z,96834.08
2017-10-29T19:23:39.798Z,96842.56
2017-10-29T19:26:05.565Z,96842.12
2017-10-29T19:28:31.352Z,96845.34
2017-10-29T19:30:57.126Z,96850.11
2017-10-29T19:33:22.958Z,96854.05
2017-10-29T19:35:48.768Z,96856.80
2017-10-29T19:38:14.532Z,96857.45
2017-10-29T19:40:40.295Z,96861.06
2017-10-29T19:43:06.066Z,96870.29
2017-10-29T19:45:31.851Z,96869.86
2017-10-29T19:47:57.600Z,96870.88
2017-10-29T19:50:23.344Z,96868.58
2017-10-29T19:52:49.123Z,96866.14
2017-10-29T19:55:14.871Z,96867.06
2017-10-29T19:57:40.635Z,96865.83
2017-10-29T20:00:06.445Z,96873.65
2017-10-29T20:02:32.205Z,96879.84
2017-10-29T20:04:58.102Z,96881.86
2017-10-29T20:07:23.890Z,96891.41
2017-10-29T20:09:49.651Z,96900.41
2017-10-29T20:12:15.447Z,96909.52
2017-10-29T20:14:41.216Z,96915.61
2017-10-29T20:17:06.983Z,96919.13
2017-10-29T20:19:32.755Z,96926.20
2017-10-29T20:21:58.526Z,96931.41
2017-10-29T20:24:24.303Z,96932.47
2017-10-29T20:26:50.087Z,96939.09
2017-10-29T20:29:15.883Z,96941.88
2017-10-29T20:31:41.688Z,96943.46
2017-10-29T20:34:07.429Z,96952.16
2017-10-29T20:36:33.200Z,96932.39
2017-10-29T20:38:58.979Z,96947.68
2017-10-29T20:41:24.787Z,96961.58
2017-10-29T20:43:50.584Z,96949.61
2017-10-29T20:46:16.372Z,96957.94
2017-10-29T20:48:42.143Z,96950.91
2017-10-29T20:51:07.903Z,96953.50
2017-10-29T20:53:33.683Z,96953.16
2017-10-29T20:55:59.440Z,96952.19
2017-10-29T20:58:25.244Z,96948.08
2017-10-29T21:00:51.005Z,96942.77
2017-10-29T21:03:16.759Z,96933.81
2017-10-29T21:05:42.558Z,96943.83
2017-10-29T21:08:08.348Z,96942.64
2017-10-29T21:10:34.140Z,96938.85
2017-10-29T21:12:59.895Z,96931.33
2017-10-29T21:15:25.683Z,96935.98
2017-10-29T21:17:51.464Z,96930.80
2017-10-29T21:20:17.242Z,96935.55
2017-10-29T21:22:45.998Z,96938.66
2017-10-29T21:25:11.952Z,96941.48
2017-10-29T21:27:37.728Z,96942.30
2017-10-29T21:30:03.491Z,96941.15
2017-10-29T21:32:29.283Z,96942.68
2017-10-29T21:34:55.051Z,96941.11
2017-10-29T21:37:20.816Z,96939.66
2017-10-29T21:39:48.954Z,96942.48
2017-10-29T21:42:14.780Z,96940.48
2017-10-29T21:44:40.571Z,96941.53
2017-10-29T21:47:06.317Z,96937.60
2017-10-29T21:49:32.072Z,96939.42
2017-10-29T21:51:57.876Z,96937.74
2017-10-29T21:54:23.635Z,96940.56
2017-10-29T21:56:49.421Z,96940.56
2017-10-29T21:59:15.167Z,96937.80
2017-10-29T22:01:40.928Z,96934.91
2017-10-29T22:04:06.711Z,96937.93
2017-10-29T22:06:32.451Z,96945.26
2017-10-29T22:08:58.228Z,96946.93
2017-10-29T22:11:23.975Z,96941.57
2017-10-29T22:13:49.760Z,96934.72
2017-10-29T22:16:15.512Z,96942.62
2017-10-29T22:18:41.288Z,96929.73
2017-10-29T22:21:07.062Z,96944.69
2017-10-29T22:23:32.827Z,96940.73
2017-10-29T22:25:58.588Z,96950.64
2017-10-29T22:28:24.399Z,96954.83
2017-10-29T22:30:50.174Z,96957.84
2017-10-29T22:33:15.971Z,96958.95
2017-10-29T22:35:41.734Z,96956.48
2017-10-29T22:38:07.499Z,96955.10
2017-10-29T22:40:33.283Z,96953.00
2017-10-29T22:42:59.048Z,96955.80
2017-10-29T22:45:24.829Z,96952.47
2017-10-29T22:47:50.607Z,96958.30
2017-10-29T22:50:16.360Z,96958.97
2017-10-29T22:52:42.126Z,96966.89
2017-10-29T22:55:07.974Z,96967.09
2017-10-29T22:57:33.785Z,96967.00
2017-10-29T22:59:59.555Z,96970.84
2017-10-29T23:02:25.333Z,96961.26
2017-10-29T23:05:03.554Z,96960.78
2017-10-29T23:07:38.628Z,96961.39
2017-10-29T23:10:04.415Z,96961.69
2017-10-29T23:12:31.055Z,96968.05
2017-10-29T23:14:56.807Z,96976.92
2017-10-29T23:17:22.606Z,96975.07
2017-10-29T23:19:48.382Z,96974.12
2017-10-29T23:22:14.177Z,96975.53
2017-10-29T23:24:39.956Z,96970.72
2017-10-29T23:27:05.712Z,96970.94
2017-10-29T23:29:31.508Z,96965.73
2017-10-29T23:31:57.267Z,96970.85
2017-10-29T23:34:23.035Z,96968.19
2017-10-29T23:36:48.801Z,96976.31
2017-10-29T23:39:14.588Z,96980.31
2017-10-29T23:41:40.340Z,96972.75
2017-10-29T23:44:06.124Z,96976.44
2017-10-29T23:46:31.910Z,96975.37
2017-10-29T23:48:57.664Z,96973.78
2017-10-29T23:51:23.435Z,96972.48
2017-10-29T23:53:49.210Z,96978.42
2017-10-29T23:56:14.963Z,96979.03
2017-10-29T23:58:40.739Z,96985.61
